Time;durP1;ratioP1;P1;durP2;ratioP2;P2;SDS_P1;SDS_P2;PMS_P1;PMS_P2;Temp;Humidity;BMP_temperature;BMP_pressure;BME280_temperature;BME280_humidity;BME280_pressure;Samples;Min_cycle;Max_cycle;Signal;HPM_P1;HPM_P2
2023/07/27 00:03:07;;;;;;;7.32;4.85;;;;;;;16.60;98.21;99603.91;10530320;28;20056;-75
2023/07/27 00:08:10;;;;;;;6.38;4.63;;;;;;;16.58;98.55;99601.47;10524989;28;20036;-75
2023/07/27 00:13:12;;;;;;;8.50;4.70;;;;;;;16.61;98.89;99602.75;10529774;28;20036;-76
2023/07/27 00:18:14;;;;;;;7.32;5.00;;;;;;;16.65;98.96;99600.09;10529670;28;20040;-76
2023/07/27 00:23:16;;;;;;;5.75;4.60;;;;;;;16.65;98.92;99589.00;10516497;28;20048;-76
2023/07/27 00:28:18;;;;;;;6.78;4.78;;;;;;;16.61;98.93;99588.09;10529012;28;20043;-77
2023/07/27 00:33:22;;;;;;;7.80;4.70;;;;;;;16.53;99.46;99585.09;10510982;28;20418;-77
2023/07/27 00:38:24;;;;;;;7.07;4.70;;;;;;;16.45;99.57;99586.00;10528828;28;20033;-77
2023/07/27 00:43:27;;;;;;;8.05;5.43;;;;;;;16.35;100.00;99563.53;10491925;28;20553;-77
2023/07/27 00:48:29;;;;;;;8.85;5.18;;;;;;;16.34;100.00;99564.69;10528508;28;20032;-77
2023/07/27 00:53:31;;;;;;;9.02;5.65;;;;;;;16.37;100.00;99573.09;10527625;28;20052;-77
2023/07/27 00:58:33;;;;;;;10.95;6.25;;;;;;;16.39;100.00;99570.78;10507860;28;20428;-77
2023/07/27 01:03:35;;;;;;;10.25;5.53;;;;;;;16.42;100.00;99578.41;10510149;28;20045;-77
2023/07/27 01:08:37;;;;;;;10.20;5.72;;;;;;;16.40;100.00;99589.03;10503811;28;20040;-77
2023/07/27 01:13:51;;;;;;;11.75;6.60;;;;;;;16.42;100.00;99592.25;10493124;28;20060;-77
2023/07/27 01:19:11;;;;;;;11.27;6.18;;;;;;;16.37;100.00;99592.47;10472071;28;20040;-76
2023/07/27 01:24:50;;;;;;;11.18;7.75;;;;;;;16.31;100.00;99576.44;10504459;28;20052;-77
2023/07/27 01:30:28;;;;;;;13.85;6.75;;;;;;;16.22;100.00;99587.63;10521579;28;20052;-76
2023/07/27 01:35:38;;;;;;;11.30;6.70;;;;;;;16.19;100.00;99589.13;10392660;28;20044;-77
2023/07/27 01:40:40;;;;;;;12.68;7.50;;;;;;;16.10;100.00;99587.59;10521809;28;20056;-76
2023/07/27 01:45:43;;;;;;;11.70;6.22;;;;;;;15.91;100.00;99586.19;10500914;28;20047;-76
2023/07/27 01:50:46;;;;;;;11.05;6.30;;;;;;;15.74;100.00;99585.56;10482666;28;20036;-76
2023/07/27 01:55:49;;;;;;;12.07;6.18;;;;;;;15.65;100.00;99599.50;10503831;28;20066;-76
2023/07/27 02:00:52;;;;;;;10.57;5.70;;;;;;;15.60;100.00;99591.38;10501600;28;20047;-76
2023/07/27 02:05:55;;;;;;;8.98;5.30;;;;;;;15.51;100.00;99591.44;10489476;28;20052;-75
2023/07/27 02:11:03;;;;;;;10.20;5.80;;;;;;;15.48;100.00;99588.56;10501498;28;20048;-76
2023/07/27 02:16:37;;;;;;;10.05;5.30;;;;;;;15.46;100.00;99586.13;10506651;28;20067;-76
2023/07/27 02:21:39;;;;;;;10.32;5.82;;;;;;;15.49;100.00;99604.81;10488846;28;20173;-76
2023/07/27 02:26:42;;;;;;;10.70;6.00;;;;;;;15.53;100.00;99607.69;10517114;28;20568;-76
2023/07/27 02:31:44;;;;;;;11.07;6.28;;;;;;;15.56;100.00;99595.94;10481694;28;20154;-76
2023/07/27 02:36:46;;;;;;;10.52;6.25;;;;;;;15.63;100.00;99608.13;10504583;28;20040;-76
2023/07/27 02:41:49;;;;;;;13.98;6.38;;;;;;;15.70;100.00;99613.09;10505572;28;20056;-76
2023/07/27 02:46:55;;;;;;;13.70;6.93;;;;;;;15.79;100.00;99619.34;10485496;28;20048;-75
2023/07/27 02:51:58;;;;;;;13.43;6.80;;;;;;;15.79;100.00;99633.16;10487441;28;20048;-75
2023/07/27 02:57:01;;;;;;;15.07;8.35;;;;;;;15.89;99.49;99629.97;10512519;28;20383;-75
2023/07/27 03:02:12;;;;;;;15.20;7.57;;;;;;;16.28;97.78;99627.75;10514245;28;20040;-76
2023/07/27 03:07:16;;;;;;;14.02;7.55;;;;;;;16.93;93.40;99636.25;10514669;28;20036;-75
2023/07/27 03:12:19;;;;;;;13.27;7.30;;;;;;;17.44;89.28;99641.00;10510870;28;20033;-76
2023/07/27 03:17:21;;;;;;;14.18;7.97;;;;;;;17.31;88.64;99627.50;10507705;28;20052;-76
2023/07/27 03:22:24;;;;;;;12.90;7.22;;;;;;;17.22;88.40;99629.63;10506557;28;20064;-76
2023/07/27 03:27:27;;;;;;;10.38;6.68;;;;;;;17.83;84.85;99640.53;10495161;28;20032;-76
2023/07/27 03:32:30;;;;;;;11.63;6.65;;;;;;;18.69;81.48;99661.06;10527345;28;20500;-75
2023/07/27 03:37:33;;;;;;;10.35;6.55;;;;;;;19.43;78.06;99667.56;10515625;28;20064;-76
2023/07/27 03:42:35;;;;;;;10.35;5.97;;;;;;;19.48;75.82;99674.84;10504947;28;20041;-76
2023/07/27 03:47:38;;;;;;;12.75;7.00;;;;;;;19.45;76.62;99676.38;10501356;28;20044;-76
2023/07/27 03:52:40;;;;;;;11.68;6.43;;;;;;;20.51;71.90;99687.28;10512628;28;20657;-76
2023/07/27 03:57:47;;;;;;;11.80;6.65;;;;;;;21.59;68.19;99680.22;10512451;28;20107;-75
2023/07/27 04:02:50;;;;;;;12.52;6.07;;;;;;;22.20;65.26;99695.75;10503502;28;20048;-76
2023/07/27 04:07:52;;;;;;;8.75;5.60;;;;;;;22.27;64.78;99699.44;10477476;28;20051;-76
2023/07/27 04:12:54;;;;;;;8.07;5.13;;;;;;;22.00;65.33;99711.06;10495427;28;20055;-76
2023/07/27 04:17:56;;;;;;;9.23;5.68;;;;;;;22.88;62.45;99725.22;10519973;28;20056;-76
2023/07/27 04:22:58;;;;;;;7.45;5.05;;;;;;;23.74;60.01;99718.25;10526417;28;20056;-76
2023/07/27 04:28:01;;;;;;;7.15;4.47;;;;;;;23.84;59.09;99714.72;10511578;28;20040;-76
2023/07/27 04:33:03;;;;;;;6.00;4.50;;;;;;;24.33;57.37;99696.50;10500462;28;20024;-76
2023/07/27 04:38:05;;;;;;;9.60;4.78;;;;;;;24.13;58.02;99696.00;10517743;28;20040;-77
2023/07/27 04:43:07;;;;;;;5.97;4.00;;;;;;;24.82;56.47;99690.16;10510339;28;20056;-77
2023/07/27 04:48:09;;;;;;;6.82;4.45;;;;;;;25.29;54.22;99707.78;10510223;28;20044;-77
2023/07/27 04:53:12;;;;;;;9.27;4.68;;;;;;;25.14;55.03;99711.81;10509189;28;20041;-77
2023/07/27 04:58:14;;;;;;;9.38;5.55;;;;;;;24.57;56.94;99720.97;10523259;28;20051;-77
2023/07/27 05:03:16;;;;;;;8.85;4.22;;;;;;;24.57;57.11;99720.97;10501648;28;20057;-77
2023/07/27 05:08:18;;;;;;;6.25;4.32;;;;;;;24.91;57.06;99723.41;10519950;28;20037;-76
2023/07/27 05:13:20;;;;;;;6.85;4.10;;;;;;;25.37;54.83;99729.06;10518148;28;20096;-77
2023/07/27 05:18:22;;;;;;;5.80;3.83;;;;;;;25.65;54.31;99733.00;10489069;28;20052;-77
2023/07/27 05:23:24;;;;;;;6.43;4.38;;;;;;;24.41;57.66;99744.97;10519179;28;20478;-77
2023/07/27 05:28:26;;;;;;;6.28;4.00;;;;;;;24.53;57.53;99747.41;10513305;28;20055;-77
2023/07/27 05:33:29;;;;;;;5.30;4.50;;;;;;;25.17;54.51;99756.75;10521825;28;20040;-77
2023/07/27 05:38:31;;;;;;;4.65;3.88;;;;;;;24.06;57.92;99749.22;10526118;28;20525;-76
2023/07/27 05:43:33;;;;;;;4.35;3.35;;;;;;;24.01;57.49;99752.41;10520550;28;20036;-76
2023/07/27 05:48:35;;;;;;;6.60;4.10;;;;;;;23.99;57.79;99760.41;10526653;28;20052;-76
2023/07/27 05:53:37;;;;;;;5.35;3.50;;;;;;;25.34;54.35;99755.13;10515153;28;20051;-76
2023/07/27 05:58:39;;;;;;;4.25;2.88;;;;;;;25.82;51.79;99761.06;10501632;28;20047;-76
2023/07/27 06:03:41;;;;;;;3.63;2.97;;;;;;;26.17;49.97;99764.16;10525785;28;20048;-76
2023/07/27 06:08:44;;;;;;;5.82;2.42;;;;;;;26.64;48.53;99774.03;10508568;28;20047;-76
2023/07/27 06:13:46;;;;;;;2.95;2.65;;;;;;;26.99;48.32;99772.97;10508537;28;20044;-76
2023/07/27 06:18:48;;;;;;;3.75;2.38;;;;;;;26.47;49.30;99786.97;10526025;28;20485;-76
2023/07/27 06:23:50;;;;;;;4.57;2.38;;;;;;;25.84;50.88;99794.41;10525483;28;20040;-77
2023/07/27 06:28:52;;;;;;;5.28;2.20;;;;;;;24.82;53.98;99810.81;10526482;28;20048;-76
2023/07/27 06:33:55;;;;;;;3.20;2.28;;;;;;;24.04;56.31;99816.88;10534219;28;20569;-76
2023/07/27 06:38:57;;;;;;;4.60;2.47;;;;;;;24.00;55.98;99832.09;10534144;28;20044;-76
2023/07/27 06:43:59;;;;;;;3.28;2.50;;;;;;;23.44;58.82;99836.88;10534092;28;20055;-76
2023/07/27 06:49:01;;;;;;;3.80;2.38;;;;;;;22.78;60.19;99835.00;10533906;28;20048;-76
2023/07/27 06:54:03;;;;;;;2.60;2.22;;;;;;;23.23;58.93;99833.88;10499599;28;20170;-76
2023/07/27 06:59:05;;;;;;;2.50;2.30;;;;;;;23.25;59.49;99831.47;10533539;28;20394;-76
2023/07/27 07:04:07;;;;;;;4.03;2.65;;;;;;;23.07;60.32;99836.91;10533836;28;20036;-76
2023/07/27 07:09:10;;;;;;;4.10;2.75;;;;;;;22.47;62.85;99839.84;10533412;28;20631;-76
2023/07/27 07:14:12;;;;;;;3.95;3.00;;;;;;;22.46;63.86;99846.59;10532931;28;20041;-76
2023/07/27 07:19:14;;;;;;;3.80;2.50;;;;;;;22.55;64.96;99849.09;10532694;28;20153;-76
2023/07/27 07:24:16;;;;;;;5.95;2.97;;;;;;;22.28;65.56;99845.59;10515319;28;20051;-76
2023/07/27 07:29:20;;;;;;;3.97;2.83;;;;;;;22.44;65.63;99840.59;10532144;28;20053;-76
2023/07/27 07:34:22;;;;;;;4.97;2.50;;;;;;;22.06;66.47;99841.69;10532145;28;20040;-76
2023/07/27 07:39:25;;;;;;;5.68;2.67;;;;;;;21.78;66.43;99844.03;10531944;28;20052;-76
2023/07/27 07:44:27;;;;;;;3.13;2.40;;;;;;;21.78;67.02;99850.44;10512804;28;20517;-75
2023/07/27 07:49:29;;;;;;;3.25;2.58;;;;;;;22.95;63.25;99856.00;10513332;28;20056;-76
2023/07/27 07:54:32;;;;;;;3.40;2.63;;;;;;;24.20;57.64;99857.81;10516510;28;20049;-76
2023/07/27 07:59:34;;;;;;;2.88;2.13;;;;;;;24.52;57.38;99863.63;10531204;28;20040;-76
2023/07/27 08:04:37;;;;;;;2.72;2.05;;;;;;;24.41;57.30;99873.97;10535620;28;20425;-75
2023/07/27 08:09:41;;;;;;;2.83;2.10;;;;;;;25.52;54.19;99870.28;10514639;28;20040;-76
2023/07/27 08:14:43;;;;;;;2.92;2.42;;;;;;;28.58;46.14;99871.38;10530336;28;20048;-75
2023/07/27 08:19:46;;;;;;;2.60;2.20;;;;;;;29.49;44.06;99870.53;10530309;28;20052;-76
2023/07/27 08:24:48;;;;;;;2.97;2.17;;;;;;;28.34;46.17;99875.31;10529703;28;20040;-76
2023/07/27 08:29:50;;;;;;;2.55;2.20;;;;;;;28.75;45.15;99880.84;10530577;28;20380;-75
2023/07/27 08:34:53;;;;;;;2.72;2.05;;;;;;;29.08;44.65;99879.22;10529583;28;20037;-75
2023/07/27 08:39:58;;;;;;;2.47;1.95;;;;;;;28.92;44.70;99882.66;10511689;28;20079;-76
2023/07/27 08:45:02;;;;;;;7.25;2.47;;;;;;;28.97;44.57;99881.38;10528778;28;20427;-76
2023/07/27 08:50:05;;;;;;;2.47;2.15;;;;;;;28.77;45.84;99886.84;10511974;28;20044;-76
2023/07/27 08:55:08;;;;;;;4.53;2.20;;;;;;;26.23;50.81;99861.00;10511024;28;20052;-76
2023/07/27 09:00:11;;;;;;;3.63;2.40;;;;;;;24.24;55.59;99873.47;10518566;28;20056;-76
2023/07/27 09:05:14;;;;;;;6.05;2.47;;;;;;;24.79;55.39;99890.16;10509062;28;20040;-76
2023/07/27 09:10:18;;;;;;;2.28;2.00;;;;;;;24.64;55.42;99897.75;10528351;28;20048;-75
2023/07/27 09:15:20;;;;;;;4.60;2.10;;;;;;;25.23;53.56;99886.31;10528155;28;20498;-76
2023/07/27 09:20:23;;;;;;;3.63;2.10;;;;;;;25.87;52.71;99886.38;10493650;28;20048;-75
2023/07/27 09:25:26;;;;;;;2.30;2.10;;;;;;;26.31;51.91;99891.50;10531265;28;20047;-75
2023/07/27 09:30:34;;;;;;;2.33;1.95;;;;;;;24.43;56.31;99896.81;10510112;28;20036;-75
2023/07/27 09:35:38;;;;;;;3.15;2.20;;;;;;;24.07;56.26;99882.56;10527144;28;20530;-76
2023/07/27 09:40:41;;;;;;;2.72;2.15;;;;;;;24.03;56.38;99904.16;10509017;28;20537;-76
2023/07/27 09:45:43;;;;;;;3.45;1.90;;;;;;;23.33;58.48;99905.16;10558438;28;20522;-76
2023/07/27 09:50:46;;;;;;;3.88;1.90;;;;;;;22.86;60.53;99901.84;10568312;28;20055;-76
2023/07/27 09:55:52;;;;;;;5.13;2.15;;;;;;;23.23;60.13;99906.66;10550480;28;20056;-76
2023/07/27 10:00:54;;;;;;;3.92;2.40;;;;;;;23.00;60.44;99904.00;10568419;28;20426;-76
2023/07/27 10:05:57;;;;;;;4.93;2.45;;;;;;;22.98;59.91;99906.38;10568168;28;20048;-76
2023/07/27 10:11:00;;;;;;;3.65;2.30;;;;;;;23.37;58.13;99914.38;10512512;28;20071;-76
2023/07/27 10:16:07;;;;;;;2.40;2.00;;;;;;;23.42;57.46;99905.63;10544535;28;20410;-76
2023/07/27 10:21:21;;;;;;;5.20;2.22;;;;;;;23.93;56.20;99907.69;10550447;28;20039;-76
2023/07/27 10:26:52;;;;;;;3.78;2.00;;;;;;;24.14;55.98;99913.47;10567768;28;20048;-75
2023/07/27 10:32:06;;;;;;;3.05;2.22;;;;;;;23.99;55.98;99909.75;10513170;28;20495;-76
2023/07/27 10:37:10;;;;;;;4.65;1.92;;;;;;;23.81;56.47;99920.03;10509666;28;20040;-76
2023/07/27 10:42:18;;;;;;;2.45;1.85;;;;;;;23.77;55.92;99919.97;10526356;28;20041;-76
2023/07/27 10:47:24;;;;;;;2.05;1.75;;;;;;;24.22;54.61;99922.72;10525472;28;20048;-76
2023/07/27 10:52:34;;;;;;;3.65;1.88;;;;;;;24.06;54.86;99909.78;10552906;28;20039;-76
2023/07/27 10:57:36;;;;;;;2.83;2.08;;;;;;;24.06;55.34;99909.78;10549470;28;20043;-76
2023/07/27 11:02:42;;;;;;;2.58;2.03;;;;;;;23.67;55.08;99903.09;10562526;28;20055;-76
2023/07/27 11:07:46;;;;;;;2.30;1.73;;;;;;;23.75;55.36;99897.16;10525320;28;20414;-76
2023/07/27 11:12:54;;;;;;;2.15;1.90;;;;;;;23.85;54.63;99889.22;10525268;28;20033;-76
2023/07/27 11:17:59;;;;;;;2.20;1.83;;;;;;;24.10;53.76;99893.00;10531049;28;20053;-76
2023/07/27 11:23:03;;;;;;;3.63;2.13;;;;;;;23.30;55.99;99892.72;10514806;28;20041;-76
2023/07/27 11:28:10;;;;;;;4.00;1.60;;;;;;;23.58;54.72;99886.59;10501630;28;20048;-77
2023/07/27 11:33:13;;;;;;;3.75;1.92;;;;;;;23.22;55.15;99893.84;10513685;28;20041;-76
2023/07/27 11:38:15;;;;;;;4.95;1.95;;;;;;;22.86;56.42;99892.66;10535990;28;20047;-76
2023/07/27 11:43:17;;;;;;;4.25;1.92;;;;;;;23.12;56.61;99898.16;10531740;28;20059;-75
2023/07/27 11:48:25;;;;;;;2.40;1.92;;;;;;;23.19;55.95;99900.22;10514097;28;20036;-74
2023/07/27 11:53:28;;;;;;;4.40;2.30;;;;;;;23.60;55.69;99905.81;10513361;28;20048;-73
2023/07/27 11:58:30;;;;;;;2.72;1.77;;;;;;;23.29;55.16;99907.13;10531060;28;20052;-74
2023/07/27 12:03:33;;;;;;;3.50;2.10;;;;;;;23.40;54.30;99902.41;10531532;28;20048;-75
2023/07/27 12:08:38;;;;;;;4.57;2.25;;;;;;;23.02;55.89;99912.81;10530834;28;20055;-75
2023/07/27 12:13:40;;;;;;;3.55;1.60;;;;;;;22.85;55.95;99905.03;10512974;28;20537;-75
2023/07/27 12:18:42;;;;;;;3.35;1.75;;;;;;;22.64;56.21;99919.53;10513138;28;20040;-75
2023/07/27 12:23:44;;;;;;;4.13;1.90;;;;;;;22.98;55.48;99912.00;10530144;28;20051;-75
2023/07/27 12:28:46;;;;;;;3.88;2.15;;;;;;;23.09;55.49;99910.13;10511762;28;20052;-75
2023/07/27 12:33:48;;;;;;;2.65;1.85;;;;;;;23.24;55.27;99911.06;10530133;28;20049;-75
2023/07/27 12:38:51;;;;;;;2.72;1.95;;;;;;;23.26;56.19;99899.50;10512142;28;20063;-75
2023/07/27 12:43:55;;;;;;;3.38;1.70;;;;;;;23.35;55.64;99903.56;10511948;28;20052;-75
2023/07/27 12:48:57;;;;;;;2.45;2.00;;;;;;;23.05;56.60;99900.06;10529611;28;20568;-75
2023/07/27 12:54:03;;;;;;;2.13;1.90;;;;;;;23.08;57.19;99899.28;10529035;28;20048;-75
2023/07/27 12:59:05;;;;;;;4.55;1.90;;;;;;;23.18;57.48;99901.41;10526690;28;20056;-75
2023/07/27 13:04:08;;;;;;;2.20;2.00;;;;;;;23.01;57.57;99899.22;10525086;28;20182;-76
2023/07/27 13:09:10;;;;;;;2.65;2.20;;;;;;;22.67;57.26;99890.00;10528570;28;20063;-75
2023/07/27 13:14:12;;;;;;;2.95;1.80;;;;;;;22.39;59.10;99893.22;10528242;28;20051;-75
2023/07/27 13:19:14;;;;;;;4.07;1.80;;;;;;;22.56;57.88;99896.28;10527781;28;20044;-75
2023/07/27 13:24:16;;;;;;;3.40;2.03;;;;;;;22.36;58.36;99897.59;10528260;28;20052;-75
2023/07/27 13:29:18;;;;;;;1.85;1.58;;;;;;;22.30;58.66;99887.13;10528064;28;20146;-75
2023/07/27 13:34:20;;;;;;;2.80;1.70;;;;;;;22.31;58.65;99881.16;10527854;28;20044;-75
2023/07/27 13:39:22;;;;;;;4.55;1.42;;;;;;;22.09;58.61;99893.22;10530448;28;20407;-75
2023/07/27 13:44:25;;;;;;;2.75;1.67;;;;;;;21.97;60.62;99895.00;10509765;28;20044;-75
2023/07/27 13:49:27;;;;;;;2.28;1.95;;;;;;;22.01;60.71;99895.06;10527636;28;20511;-76
2023/07/27 13:54:34;;;;;;;2.85;2.05;;;;;;;22.10;61.01;99901.22;10527206;28;20048;-76
2023/07/27 13:59:36;;;;;;;6.50;2.00;;;;;;;21.76;61.95;99891.91;10526427;28;20051;-76
2023/07/27 14:04:38;;;;;;;2.03;1.67;;;;;;;22.00;61.27;99895.44;10526478;28;20048;-76
2023/07/27 14:09:41;;;;;;;4.45;2.42;;;;;;;22.15;59.98;99891.69;10526712;28;20045;-76
2023/07/27 14:14:43;;;;;;;3.22;1.63;;;;;;;22.05;61.32;99882.00;10508432;28;20052;-76
2023/07/27 14:19:45;;;;;;;2.88;1.80;;;;;;;21.91;61.52;99887.34;10526206;28;20049;-76
2023/07/27 14:24:47;;;;;;;6.47;2.25;;;;;;;21.91;61.69;99888.16;10525862;28;20052;-76
2023/07/27 14:29:49;;;;;;;2.35;1.48;;;;;;;22.01;61.91;99897.03;10526583;28;20660;-75
2023/07/27 14:34:51;;;;;;;3.83;1.60;;;;;;;21.98;62.43;99887.44;10525934;28;20067;-76
2023/07/27 14:39:53;;;;;;;4.38;1.90;;;;;;;21.79;61.68;99882.75;10526262;28;20063;-76
2023/07/27 14:44:55;;;;;;;2.00;1.50;;;;;;;21.60;61.33;99888.44;10525738;28;20041;-76
2023/07/27 14:49:59;;;;;;;1.88;1.50;;;;;;;21.71;61.60;99900.59;10527265;28;20040;-76
2023/07/27 14:55:03;;;;;;;6.60;1.80;;;;;;;21.55;62.12;99902.72;10537026;28;20052;-76
2023/07/27 15:00:06;;;;;;;5.13;1.58;;;;;;;21.36;61.88;99904.41;10533811;28;20051;-76
2023/07/27 15:05:08;;;;;;;5.63;1.50;;;;;;;21.30;61.84;99905.84;10533151;28;20052;-75
2023/07/27 15:10:11;;;;;;;4.50;1.50;;;;;;;21.16;62.87;99905.56;10516057;28;20047;-76
2023/07/27 15:15:14;;;;;;;3.78;1.60;;;;;;;21.01;62.26;99912.88;10518925;28;20044;-75
2023/07/27 15:20:16;;;;;;;1.70;1.40;;;;;;;20.69;63.53;99909.44;10532897;28;20068;-75
2023/07/27 15:25:18;;;;;;;3.05;1.40;;;;;;;20.76;63.86;99906.00;10498540;28;20059;-75
2023/07/27 15:30:20;;;;;;;3.50;1.60;;;;;;;20.54;65.35;99909.50;10535828;28;20627;-75
2023/07/27 15:35:23;;;;;;;3.08;1.45;;;;;;;20.49;65.49;99896.69;10523801;28;20071;-74
2023/07/27 15:40:25;;;;;;;5.28;1.35;;;;;;;20.27;64.95;99914.06;10512336;28;20492;-75
2023/07/27 15:45:27;;;;;;;2.03;1.30;;;;;;;20.07;63.79;99913.22;10513304;28;20057;-74
2023/07/27 15:50:29;;;;;;;3.17;1.83;;;;;;;20.07;64.54;99916.81;10513453;28;20052;-75
2023/07/27 15:55:34;;;;;;;2.88;1.60;;;;;;;20.08;64.56;99921.19;10517421;28;20717;-74
2023/07/27 16:00:39;;;;;;;4.70;1.60;;;;;;;20.27;64.44;99925.19;10497613;28;20044;-74
2023/07/27 16:05:41;;;;;;;3.60;1.30;;;;;;;20.33;63.47;99927.34;10513118;28;20041;-75
2023/07/27 16:10:45;;;;;;;3.35;1.33;;;;;;;20.10;63.27;99924.44;10530757;28;20067;-74
2023/07/27 16:15:48;;;;;;;3.78;1.40;;;;;;;20.12;63.35;99927.66;10490100;28;20048;-75
2023/07/27 16:20:51;;;;;;;3.55;1.70;;;;;;;19.93;63.15;99918.44;10494451;28;20048;-82
2023/07/27 16:25:53;;;;;;;3.00;1.20;;;;;;;19.82;63.68;99932.13;10523489;28;20036;-74
2023/07/27 16:30:56;;;;;;;1.50;1.30;;;;;;;19.80;63.16;99932.50;10502326;28;20044;-74
2023/07/27 16:35:58;;;;;;;4.15;1.30;;;;;;;19.93;62.71;99919.25;10516649;28;20052;-74
2023/07/27 16:41:00;;;;;;;2.92;1.10;;;;;;;19.82;62.55;99924.56;10481126;28;20052;-74
2023/07/27 16:46:03;;;;;;;3.00;1.40;;;;;;;19.85;62.69;99917.47;10503384;28;20135;-74
2023/07/27 16:51:06;;;;;;;6.25;1.67;;;;;;;19.80;62.37;99915.78;10527218;28;20063;-74
2023/07/27 16:56:09;;;;;;;4.50;1.60;;;;;;;19.84;61.46;99910.28;10524403;28;20036;-74
2023/07/27 17:01:16;;;;;;;6.07;1.42;;;;;;;19.66;61.58;99912.66;10521182;28;20036;-75
2023/07/27 17:06:18;;;;;;;4.00;1.70;;;;;;;19.60;62.05;99918.81;10503360;28;20426;-74
2023/07/27 17:11:20;;;;;;;1.70;1.38;;;;;;;19.61;62.24;99912.91;10491431;28;20438;-81
2023/07/27 17:16:23;;;;;;;2.67;1.35;;;;;;;19.47;62.59;99904.19;10525636;28;20043;-80
2023/07/27 17:21:25;;;;;;;2.13;1.40;;;;;;;19.38;63.52;99903.53;10508537;28;20344;-75
2023/07/27 17:26:27;;;;;;;3.95;2.08;;;;;;;19.47;63.93;99905.00;10525592;28;20056;-81
2023/07/27 17:31:32;;;;;;;2.47;1.30;;;;;;;19.40;63.76;99902.00;10506603;28;20033;-80
2023/07/27 17:36:35;;;;;;;2.17;1.20;;;;;;;19.42;64.19;99890.50;10485845;28;20048;-77
2023/07/27 17:41:37;;;;;;;2.13;1.40;;;;;;;19.23;64.34;99888.44;10526866;28;20041;-81
2023/07/27 17:46:40;;;;;;;4.25;1.63;;;;;;;19.22;65.41;99889.59;10524379;28;20056;-78
2023/07/27 17:51:42;;;;;;;3.85;1.38;;;;;;;19.17;65.84;99884.31;10504709;28;20048;-80
2023/07/27 17:56:44;;;;;;;4.82;1.60;;;;;;;19.21;65.39;99882.44;10515525;28;20068;-82
2023/07/27 18:01:47;;;;;;;7.05;1.30;;;;;;;19.13;66.04;99880.63;10527837;28;20048;-75
2023/07/27 18:06:49;;;;;;;1.50;1.30;;;;;;;19.06;66.76;99880.44;10523425;28;20056;-76
2023/07/27 18:11:51;;;;;;;7.68;1.63;;;;;;;18.91;67.66;99879.25;10529870;28;20053;-80
2023/07/27 18:16:54;;;;;;;2.45;1.95;;;;;;;18.87;67.66;99881.94;10494616;28;20045;-78
2023/07/27 18:21:57;;;;;;;3.15;1.58;;;;;;;18.85;67.49;99875.91;10505376;28;20056;-79
2023/07/27 18:26:59;;;;;;;4.93;1.25;;;;;;;19.01;67.16;99855.69;10523088;28;20418;-84
2023/07/27 18:32:02;;;;;;;4.47;1.35;;;;;;;18.86;66.27;99852.50;10524346;28;20036;-80
2023/07/27 18:37:07;;;;;;;2.35;1.38;;;;;;;18.81;66.92;99852.78;10521472;28;20052;-78
2023/07/27 18:42:09;;;;;;;3.42;1.40;;;;;;;18.82;66.25;99840.50;10512172;28;20395;-76
2023/07/27 18:47:12;;;;;;;3.97;1.48;;;;;;;18.74;65.71;99849.78;10522969;28;20055;-77
2023/07/27 18:52:14;;;;;;;4.60;1.65;;;;;;;18.65;65.51;99836.06;10509962;28;20045;-77
2023/07/27 18:57:16;;;;;;;2.75;1.30;;;;;;;18.60;65.12;99838.28;10504312;28;20486;-85
2023/07/27 19:02:18;;;;;;;2.25;1.27;;;;;;;18.62;65.19;99833.16;10505886;28;20047;-86
2023/07/27 19:07:21;;;;;;;6.18;1.73;;;;;;;18.60;65.39;99829.94;10524113;28;20454;-79
2023/07/27 19:12:23;;;;;;;3.78;1.40;;;;;;;18.53;65.78;99838.84;10520408;28;20044;-80
2023/07/27 19:17:26;;;;;;;4.63;1.42;;;;;;;18.47;65.49;99843.06;10518000;28;20051;-87
2023/07/27 19:22:29;;;;;;;3.90;2.00;;;;;;;18.49;65.29;99842.72;10524556;28;20083;-80
2023/07/27 19:27:32;;;;;;;4.47;1.65;;;;;;;18.49;65.29;99849.06;10520839;28;20075;-74
2023/07/27 19:32:34;;;;;;;1.42;1.27;;;;;;;18.47;64.62;99836.69;10485170;28;20045;-74
2023/07/27 19:37:36;;;;;;;2.90;1.50;;;;;;;18.31;65.03;99840.22;10468022;28;20045;-74
2023/07/27 19:42:38;;;;;;;2.60;1.40;;;;;;;18.26;65.00;99837.72;10490104;28;20404;-74
2023/07/27 19:47:40;;;;;;;5.00;1.67;;;;;;;18.26;64.87;99840.47;10493131;28;20047;-74
2023/07/27 19:52:42;;;;;;;3.83;1.77;;;;;;;18.15;64.71;99850.44;10519004;28;20565;-75
2023/07/27 19:57:45;;;;;;;4.28;1.55;;;;;;;18.03;66.50;99844.91;10512157;28;20040;-74
2023/07/27 20:02:52;;;;;;;3.58;1.50;;;;;;;17.62;68.49;99844.03;10530040;28;20045;-73
2023/07/27 20:08:00;;;;;;;2.25;1.40;;;;;;;17.35;71.71;99841.94;10530439;28;20044;-74
2023/07/27 20:13:02;;;;;;;5.45;1.70;;;;;;;17.17;73.37;99839.38;10530131;28;20036;-74
2023/07/27 20:18:05;;;;;;;6.47;2.00;;;;;;;16.86;75.18;99839.13;10529905;28;20040;-74
2023/07/27 20:23:08;;;;;;;3.63;2.00;;;;;;;16.67;76.72;99831.31;10529172;28;20036;-76
2023/07/27 20:28:11;;;;;;;7.50;1.98;;;;;;;16.48;78.75;99831.78;10525474;28;20425;-76
2023/07/27 20:33:13;;;;;;;4.43;2.08;;;;;;;16.41;78.58;99831.53;10527578;28;20071;-76
2023/07/27 20:38:16;;;;;;;3.70;2.00;;;;;;;16.44;79.58;99819.78;10524798;28;20434;-75
2023/07/27 20:43:19;;;;;;;3.33;2.10;;;;;;;16.47;80.39;99826.59;10529822;28;20048;-75
2023/07/27 20:48:22;;;;;;;5.90;2.00;;;;;;;16.26;81.66;99826.63;10528652;28;20435;-76
2023/07/27 20:53:24;;;;;;;4.45;1.90;;;;;;;16.21;82.36;99815.75;10528945;28;20058;-75
2023/07/27 20:58:53;;;;;;;5.60;1.85;;;;;;;16.06;83.89;99816.38;10529528;28;20589;-75
2023/07/27 21:04:20;;;;;;;4.50;2.50;;;;;;;16.05;83.48;99817.53;10532792;28;20047;-75
2023/07/27 21:09:22;;;;;;;5.13;2.20;;;;;;;16.02;83.49;99818.19;10527074;28;20094;-75
2023/07/27 21:14:29;;;;;;;7.53;1.98;;;;;;;15.94;82.72;99817.91;10527716;28;20419;-75
2023/07/27 21:19:31;;;;;;;;;;;;;;;15.97;81.93;99819.22;10534423;28;20044;-75
2023/07/27 21:24:34;;;;;;;3.92;2.20;;;;;;;15.97;82.21;99814.50;10528183;28;19920;-75
2023/07/27 21:29:37;;;;;;;5.07;2.30;;;;;;;15.84;81.67;99818.31;10507942;28;20049;-74
2023/07/27 21:34:39;;;;;;;4.68;2.03;;;;;;;15.84;81.20;99817.53;10524323;28;20530;-73
2023/07/27 21:39:43;;;;;;;4.10;2.00;;;;;;;15.80;81.13;99811.84;10521401;28;20040;-73
2023/07/27 21:45:10;;;;;;;5.45;2.00;;;;;;;15.73;79.72;99803.25;10514321;28;20052;-73
2023/07/27 21:50:12;;;;;;;2.22;1.40;;;;;;;15.73;79.85;99802.44;10523069;28;20033;-73
2023/07/27 21:55:15;;;;;;;3.25;1.40;;;;;;;15.78;79.33;99797.53;10524975;28;20450;-74
2023/07/27 22:00:17;;;;;;;2.55;1.33;;;;;;;15.70;79.35;99811.44;10527429;28;20044;-74
2023/07/27 22:05:21;;;;;;;2.95;1.45;;;;;;;15.63;80.11;99806.44;10500864;28;20426;-73
2023/07/27 22:10:24;;;;;;;2.97;1.42;;;;;;;15.57;81.30;99814.06;10504478;28;20041;-74
2023/07/27 22:15:27;;;;;;;2.92;1.55;;;;;;;15.54;81.84;99814.75;10487689;28;20411;-73
2023/07/27 22:20:29;;;;;;;4.60;1.70;;;;;;;15.58;82.58;99810.16;10500137;28;20049;-73
2023/07/27 22:25:32;;;;;;;2.00;1.38;;;;;;;15.69;81.68;99802.31;10520126;28;20052;-73
2023/07/27 22:30:34;;;;;;;5.38;3.20;;;;;;;15.65;82.88;99798.59;10484950;28;20044;-74
2023/07/27 22:35:36;;;;;;;1.40;1.30;;;;;;;15.51;84.71;99792.47;10485224;28;20444;-73
2023/07/27 22:40:53;;;;;;;3.28;1.83;;;;;;;15.14;87.57;99794.97;10485080;28;20045;-74
2023/07/27 22:45:58;;;;;;;2.63;1.55;;;;;;;14.96;89.33;99798.94;10487670;28;20037;-74
2023/07/27 22:51:01;;;;;;;3.53;2.25;;;;;;;14.78;89.63;99787.94;10524962;28;20036;-74
2023/07/27 22:56:03;;;;;;;1.65;1.50;;;;;;;14.69;90.52;99789.91;10491972;28;20049;-74
2023/07/27 23:01:10;;;;;;;2.65;1.60;;;;;;;14.47;90.51;99793.69;10506705;28;20040;-74
2023/07/27 23:06:13;;;;;;;2.87;1.60;;;;;;;14.43;91.67;99781.69;10465869;28;20049;-74
2023/07/27 23:11:15;;;;;;;5.15;1.90;;;;;;;14.45;92.11;99775.84;10503865;28;20056;-74
2023/07/27 23:16:19;;;;;;;2.90;1.52;;;;;;;14.47;92.50;99776.34;10529014;28;20112;-74
2023/07/27 23:21:22;;;;;;;3.42;1.65;;;;;;;14.49;91.17;99768.53;10526566;28;20523;-74
2023/07/27 23:26:24;;;;;;;3.67;1.92;;;;;;;14.33;89.57;99759.94;10530056;28;20063;-74
2023/07/27 23:31:26;;;;;;;2.60;1.70;;;;;;;14.32;89.09;99772.09;10529261;28;20044;-74